Terminal Aerodrome Forecast
Issued by NWS

Home | Current Version | Previous Version | Text Only | Print | Product List | Glossary On
Versions: 1 2 3 4 5 6 7 8 9 10 11 12 13 14 15
000
FTUS41 KCAR 232320
TAFBHB
TAF
KBHB 232320Z 2400/2424 VRB03KT P6SM BCFG OVC005
      TEMPO 2400/2402 1SM BR OVC002
     FM240200 19010KT 1SM BR OVC003
     FM241300 22009KT P6SM OVC005
     FM241600 24009KT P6SM BKN008
     FM242000 26008KT P6SM BKN050=

USA.gov is the U.S. government's official web portal to all federal, state and local government web resources and services.